Time;durP1;ratioP1;P1;durP2;ratioP2;P2;SDS_P1;SDS_P2;PMS_P1;PMS_P2;Temp;Humidity;BMP_temperature;BMP_pressure;BME280_temperature;BME280_humidity;BME280_pressure;Samples;Min_cycle;Max_cycle;Signal;HPM_P1;HPM_P2
2023/09/25 00:01:51;;;;;;;10.88;5.03;;;;;;;20.82;100.00;94816.91;5021640;28;20136;-86
2023/09/25 00:04:17;;;;;;;13.30;4.57;;;;;;;20.79;100.00;94811.31;5004173;28;20837;-85
2023/09/25 00:06:42;;;;;;;11.90;4.57;;;;;;;20.78;100.00;94804.44;5003952;28;20474;-86
2023/09/25 00:09:08;;;;;;;13.25;4.72;;;;;;;20.76;100.00;94811.78;5019225;28;20126;-87
2023/09/25 00:11:34;;;;;;;15.07;4.80;;;;;;;20.72;100.00;94810.66;5004455;28;20033;-86
2023/09/25 00:13:59;;;;;;;12.75;4.95;;;;;;;20.63;100.00;94817.34;5003140;28;20028;-89
2023/09/25 00:16:25;;;;;;;12.13;5.57;;;;;;;20.60;100.00;94813.34;5021986;28;20029;-87
2023/09/25 00:18:51;;;;;;;9.70;4.47;;;;;;;20.55;100.00;94809.84;5021582;28;20045;-84
2023/09/25 00:21:16;;;;;;;12.50;5.30;;;;;;;20.54;100.00;94818.75;5021163;28;20025;-89
2023/09/25 00:23:42;;;;;;;12.82;5.18;;;;;;;20.52;100.00;94810.31;5019632;28;20094;-90
2023/09/25 00:26:08;;;;;;;10.68;4.97;;;;;;;20.40;100.00;94819.03;5020754;28;20037;-84
2023/09/25 00:28:35;;;;;;;9.10;5.15;;;;;;;20.36;100.00;94820.53;5021678;28;20491;-85
2023/09/25 00:31:00;;;;;;;10.77;4.93;;;;;;;20.33;100.00;94823.63;5020016;28;20525;-87
2023/09/25 00:33:26;;;;;;;15.20;5.30;;;;;;;20.25;100.00;94831.06;5003676;28;20119;-84
2023/09/25 00:35:53;;;;;;;9.30;4.85;;;;;;;20.27;100.00;94829.81;5002093;28;20048;-83
2023/09/25 00:38:19;;;;;;;10.32;4.80;;;;;;;20.23;100.00;94833.13;5020998;28;20021;-83
2023/09/25 00:40:45;;;;;;;10.45;5.38;;;;;;;20.15;100.00;94825.59;5020696;28;20974;-83
2023/09/25 00:43:13;;;;;;;7.50;4.78;;;;;;;19.97;100.00;94822.09;5002168;28;20025;-84
2023/09/25 00:45:40;;;;;;;8.48;4.30;;;;;;;19.89;100.00;94827.72;5020748;28;20036;-84
2023/09/25 00:48:07;;;;;;;9.45;4.70;;;;;;;19.89;100.00;94826.91;5001935;28;20432;-81
2023/09/25 00:50:33;;;;;;;13.05;4.70;;;;;;;19.96;100.00;94823.13;4983267;28;20026;-83
2023/09/25 00:53:09;;;;;;;9.25;4.50;;;;;;;19.92;100.00;94827.25;5014910;28;20021;-81
2023/09/25 00:55:34;;;;;;;5.97;4.63;;;;;;;19.87;100.00;94827.13;5003732;28;20025;-81
2023/09/25 00:58:00;;;;;;;7.70;3.85;;;;;;;19.56;100.00;94826.69;5002140;28;20091;-80
2023/09/25 01:00:26;;;;;;;8.82;4.53;;;;;;;19.60;100.00;94836.53;5019997;28;20442;-81
2023/09/25 01:02:51;;;;;;;5.25;4.50;;;;;;;19.53;100.00;94832.41;5020662;28;20071;-82
2023/09/25 01:05:17;;;;;;;7.72;4.35;;;;;;;19.42;100.00;94832.19;5018852;28;20060;-80
2023/09/25 01:07:43;;;;;;;7.03;3.85;;;;;;;19.38;100.00;94841.53;5020725;28;20025;-80
2023/09/25 01:10:16;;;;;;;6.68;4.35;;;;;;;19.33;100.00;94838.78;5019417;28;20128;-80
2023/09/25 01:12:46;;;;;;;8.05;4.72;;;;;;;19.44;100.00;94835.41;5020058;28;20041;-80
2023/09/25 01:15:13;;;;;;;9.85;4.90;;;;;;;19.39;100.00;94840.47;5019433;28;20030;-81
2023/09/25 01:17:40;;;;;;;9.63;4.88;;;;;;;19.33;100.00;94856.34;5020073;28;20069;-80
2023/09/25 01:20:15;;;;;;;12.85;4.80;;;;;;;19.35;100.00;94865.63;5019812;28;20041;-79
2023/09/25 01:22:45;;;;;;;9.27;5.00;;;;;;;19.41;100.00;94869.19;5019691;28;20614;-81
2023/09/25 01:25:10;;;;;;;7.47;4.65;;;;;;;19.31;100.00;94861.84;5019587;28;20038;-81
2023/09/25 01:27:37;;;;;;;9.25;4.20;;;;;;;19.30;100.00;94864.69;5019761;28;20388;-81
2023/09/25 01:30:03;;;;;;;5.57;4.10;;;;;;;19.21;100.00;94874.72;5020012;28;20029;-83
2023/09/25 01:32:28;;;;;;;6.40;4.40;;;;;;;19.31;100.00;94876.81;5019261;28;20495;-83
2023/09/25 01:34:54;;;;;;;6.75;4.50;;;;;;;19.31;100.00;94872.34;5019771;28;20044;-81
2023/09/25 01:37:19;;;;;;;9.15;4.35;;;;;;;19.23;100.00;94869.28;5023096;28;20613;-80
2023/09/25 01:39:45;;;;;;;8.55;4.45;;;;;;;19.07;100.00;94877.78;5023274;28;20521;-84
2023/09/25 01:42:10;;;;;;;12.52;4.70;;;;;;;19.07;100.00;94883.81;5023907;28;20075;-84
2023/09/25 01:44:36;;;;;;;5.65;4.40;;;;;;;18.98;100.00;94884.38;5023045;28;20064;-85
2023/09/25 01:47:01;;;;;;;6.80;4.15;;;;;;;19.05;100.00;94878.00;5023877;28;20053;-83
2023/09/25 01:49:27;;;;;;;9.02;4.55;;;;;;;18.94;100.00;94884.03;5023205;28;20122;-86
2023/09/25 01:51:52;;;;;;;6.75;4.20;;;;;;;18.90;100.00;94885.50;5023749;28;20391;-84
2023/09/25 01:54:18;;;;;;;9.00;4.50;;;;;;;18.87;100.00;94885.94;5023292;28;20120;-86
2023/09/25 01:56:46;;;;;;;8.52;4.43;;;;;;;18.82;100.00;94883.97;5022493;28;20116;-84
2023/09/25 01:59:11;;;;;;;7.13;4.32;;;;;;;18.84;100.00;94886.41;5005992;28;20038;-83
2023/09/25 02:01:37;;;;;;;8.23;4.35;;;;;;;18.84;100.00;94891.66;5021606;28;20260;-81
2023/09/25 02:04:03;;;;;;;6.13;3.92;;;;;;;18.72;100.00;94891.59;5023198;28;20036;-80
2023/09/25 02:06:28;;;;;;;5.28;3.90;;;;;;;18.76;100.00;94898.00;5022775;28;20529;-84
2023/09/25 02:08:54;;;;;;;6.38;4.32;;;;;;;18.71;100.00;94900.50;5005620;28;20037;-87
2023/09/25 02:11:19;;;;;;;6.53;4.65;;;;;;;18.75;100.00;94909.50;5022869;28;20041;-83
2023/09/25 02:13:44;;;;;;;5.68;4.45;;;;;;;18.72;100.00;94909.94;5022921;28;20056;-82
2023/09/25 02:16:10;;;;;;;6.97;4.45;;;;;;;18.57;100.00;94921.88;5005560;28;20486;-82
2023/09/25 02:18:35;;;;;;;5.60;4.25;;;;;;;18.64;100.00;94922.59;5022391;28;20361;-84
2023/09/25 02:21:00;;;;;;;5.75;4.72;;;;;;;18.48;100.00;94923.16;5005364;28;20430;-84
2023/09/25 02:23:26;;;;;;;8.45;4.80;;;;;;;18.60;100.00;94927.47;5022460;28;20025;-84
2023/09/25 02:25:51;;;;;;;6.03;4.88;;;;;;;18.63;100.00;94927.03;5023340;28;20046;-84
2023/09/25 02:28:17;;;;;;;8.38;5.28;;;;;;;18.61;100.00;94930.91;5023785;28;20841;-84
2023/09/25 02:30:42;;;;;;;11.88;5.45;;;;;;;18.69;100.00;94930.59;5003656;28;20033;-85
2023/09/25 02:33:09;;;;;;;5.57;5.07;;;;;;;18.62;100.00;94935.13;5022675;28;20032;-82
2023/09/25 02:35:36;;;;;;;7.97;6.20;;;;;;;18.61;100.00;94930.91;5022282;28;20889;-84
2023/09/25 02:38:02;;;;;;;9.20;5.93;;;;;;;18.60;100.00;94937.16;5022921;28;20029;-83
2023/09/25 02:40:27;;;;;;;6.47;5.97;;;;;;;18.56;100.00;94947.28;5021511;28;20094;-86
2023/09/25 02:42:53;;;;;;;9.50;6.47;;;;;;;18.56;100.00;94946.50;5023255;28;20033;-83
2023/09/25 02:45:18;;;;;;;7.40;6.65;;;;;;;18.40;100.00;94953.09;5022435;28;20503;-85
2023/09/25 02:47:44;;;;;;;10.52;6.82;;;;;;;18.41;100.00;94963.38;5022387;28;20022;-84
2023/09/25 02:50:10;;;;;;;7.93;6.72;;;;;;;18.34;100.00;94954.78;5010900;28;20041;-83
2023/09/25 02:52:36;;;;;;;8.07;6.97;;;;;;;18.38;100.00;94953.31;5004019;28;20029;-81
2023/09/25 02:55:03;;;;;;;10.85;7.35;;;;;;;18.22;100.00;94967.00;5022556;28;20036;-82
2023/09/25 02:57:29;;;;;;;7.43;6.60;;;;;;;18.26;100.00;94957.69;5021638;28;20056;-80
2023/09/25 02:59:54;;;;;;;8.05;7.25;;;;;;;18.23;100.00;94966.00;5022715;28;20697;-83
2023/09/25 03:02:20;;;;;;;7.93;6.60;;;;;;;18.10;100.00;94975.81;5021618;28;20548;-82
2023/09/25 03:04:46;;;;;;;9.00;7.68;;;;;;;18.15;100.00;94976.75;5022411;28;20067;-82
2023/09/25 03:07:11;;;;;;;7.60;6.88;;;;;;;18.21;100.00;94975.09;5004070;28;20072;-81
2023/09/25 03:09:37;;;;;;;9.55;7.60;;;;;;;18.23;100.00;94975.69;5021600;28;20030;-82
2023/09/25 03:12:02;;;;;;;7.90;7.10;;;;;;;18.22;100.00;94982.75;5021636;28;20021;-83
2023/09/25 03:14:28;;;;;;;9.00;8.10;;;;;;;18.22;100.00;94992.44;5014539;28;20079;-84
2023/09/25 03:16:53;;;;;;;8.15;7.40;;;;;;;18.13;100.00;94991.91;5026355;28;20471;-84
2023/09/25 03:19:18;;;;;;;8.13;7.30;;;;;;;18.07;100.00;95000.66;5007901;28;20108;-81
2023/09/25 03:21:44;;;;;;;7.80;7.05;;;;;;;18.02;100.00;95010.97;5017502;28;20034;-83
2023/09/25 03:24:10;;;;;;;7.93;7.13;;;;;;;18.03;100.00;95009.94;5015860;28;20401;-82
2023/09/25 03:26:36;;;;;;;7.85;7.18;;;;;;;18.01;100.00;95012.00;5011482;28;20026;-83
2023/09/25 03:29:02;;;;;;;6.88;6.38;;;;;;;18.09;100.00;95005.66;4994694;28;20113;-79
2023/09/25 03:31:27;;;;;;;10.20;7.22;;;;;;;18.06;100.00;95000.84;5019870;28;20021;-81
2023/09/25 03:33:53;;;;;;;8.00;7.32;;;;;;;18.02;100.00;95013.56;5017639;28;20037;-80
2023/09/25 03:36:18;;;;;;;7.85;7.20;;;;;;;17.89;100.00;95011.88;5014521;28;20026;-80
2023/09/25 03:38:44;;;;;;;7.68;6.97;;;;;;;17.91;100.00;95016.91;5006317;28;20088;-81
2023/09/25 03:41:09;;;;;;;8.05;7.28;;;;;;;17.88;100.00;95012.09;5013370;28;20109;-81
2023/09/25 03:43:34;;;;;;;8.48;7.78;;;;;;;18.00;100.00;95002.50;5009116;28;20479;-81
2023/09/25 03:46:00;;;;;;;8.43;7.32;;;;;;;17.99;100.00;95003.53;5008250;28;20488;-81
2023/09/25 03:48:26;;;;;;;7.88;6.93;;;;;;;18.11;100.00;95009.66;5008814;28;20030;-82
2023/09/25 03:50:51;;;;;;;7.93;7.22;;;;;;;17.85;100.00;95012.53;5007745;28;20022;-81
2023/09/25 03:53:16;;;;;;;10.95;8.30;;;;;;;17.88;100.00;95012.88;5007679;28;20022;-81
2023/09/25 03:55:43;;;;;;;9.63;8.93;;;;;;;17.89;100.00;95003.19;5007321;28;20025;-82
2023/09/25 03:58:08;;;;;;;10.40;9.32;;;;;;;17.97;100.00;95015.25;5006305;28;20521;-82
2023/09/25 04:00:34;;;;;;;10.48;9.60;;;;;;;18.09;100.00;95013.53;5008222;28;20033;-83
2023/09/25 04:02:59;;;;;;;9.85;9.20;;;;;;;17.81;100.00;95012.16;5007620;28;20026;-82
2023/09/25 04:05:25;;;;;;;11.88;10.73;;;;;;;17.79;100.00;95022.03;5008504;28;20511;-81
2023/09/25 04:07:50;;;;;;;11.05;9.98;;;;;;;17.82;100.00;95018.16;5007648;28;20033;-83
2023/09/25 04:10:16;;;;;;;11.15;10.15;;;;;;;17.75;100.00;95023.50;5007907;28;20462;-85
2023/09/25 04:12:41;;;;;;;13.65;12.25;;;;;;;17.78;100.00;95025.69;5008265;28;20359;-81
2023/09/25 04:15:16;;;;;;;13.00;11.95;;;;;;;17.82;100.00;95008.50;5007489;28;20033;-82
2023/09/25 04:17:42;;;;;;;15.13;13.80;;;;;;;17.95;100.00;95004.19;5008230;28;20147;-84
2023/09/25 04:20:14;;;;;;;17.67;15.32;;;;;;;18.01;100.00;95009.38;4988950;28;20042;-84
2023/09/25 04:22:40;;;;;;;16.40;15.10;;;;;;;17.99;100.00;95014.00;5008145;28;20583;-84
2023/09/25 04:25:08;;;;;;;18.48;16.90;;;;;;;18.00;100.00;95022.69;5007083;28;20160;-83
2023/09/25 04:27:35;;;;;;;18.33;16.77;;;;;;;17.92;100.00;95027.16;5007411;28;20034;-82
2023/09/25 04:30:02;;;;;;;19.90;17.80;;;;;;;17.96;100.00;95024.94;5007508;28;20018;-80
2023/09/25 04:32:27;;;;;;;16.70;15.13;;;;;;;17.92;100.00;95036.84;5007738;28;20041;-83
2023/09/25 04:34:53;;;;;;;18.33;16.92;;;;;;;17.95;100.00;95040.88;5008024;28;20022;-80
2023/09/25 04:37:19;;;;;;;17.63;15.90;;;;;;;18.01;100.00;95030.34;5007022;28;20048;-86
2023/09/25 04:39:44;;;;;;;18.42;16.95;;;;;;;18.03;100.00;95028.31;5007823;28;20041;-79
2023/09/25 04:42:10;;;;;;;18.98;17.38;;;;;;;18.11;100.00;95011.50;5006727;28;20025;-80
2023/09/25 04:44:35;;;;;;;18.27;16.83;;;;;;;18.03;100.00;95017.00;5007672;28;20088;-80
2023/09/25 04:47:01;;;;;;;19.50;17.98;;;;;;;18.00;100.00;95015.63;5007046;28;20447;-80
2023/09/25 04:49:26;;;;;;;18.67;17.17;;;;;;;18.12;100.00;95018.34;5007244;28;20532;-81
2023/09/25 04:51:51;;;;;;;20.55;18.70;;;;;;;18.09;100.00;95013.53;5007719;28;20030;-82
2023/09/25 04:54:17;;;;;;;18.60;16.95;;;;;;;18.10;100.00;95012.50;5006691;28;20026;-81
2023/09/25 04:56:42;;;;;;;16.92;15.57;;;;;;;18.15;100.00;95005.59;5007540;28;20056;-84
2023/09/25 04:59:08;;;;;;;16.48;15.07;;;;;;;18.08;100.00;95007.47;5006787;28;20026;-87
2023/09/25 05:01:33;;;;;;;16.90;15.35;;;;;;;18.25;100.00;95008.53;5007879;28;20026;-82
2023/09/25 05:03:58;;;;;;;19.88;18.08;;;;;;;18.25;100.00;95013.78;5006698;28;20507;-83
2023/09/25 05:06:24;;;;;;;16.92;15.15;;;;;;;18.41;100.00;95018.47;5007398;28;20040;-83
2023/09/25 05:08:49;;;;;;;13.52;12.32;;;;;;;18.40;100.00;95016.84;5007203;28;20026;-82
2023/09/25 05:11:15;;;;;;;11.70;10.75;;;;;;;18.34;100.00;95027.41;5008160;28;20034;-82
2023/09/25 05:13:40;;;;;;;12.23;10.77;;;;;;;18.20;100.00;95034.63;5011560;28;20026;-82
2023/09/25 05:16:06;;;;;;;10.48;9.63;;;;;;;18.26;100.00;95038.19;5010278;28;20034;-82
2023/09/25 05:18:31;;;;;;;11.13;10.20;;;;;;;18.40;100.00;95037.84;5012140;28;20022;-84
2023/09/25 05:20:58;;;;;;;9.38;8.50;;;;;;;18.46;100.00;95030.13;5010889;28;20026;-85
2023/09/25 05:23:24;;;;;;;9.23;8.30;;;;;;;18.62;100.00;95030.38;5011541;28;20030;-83
2023/09/25 05:25:49;;;;;;;9.57;8.70;;;;;;;18.73;100.00;95031.47;5010363;28;20424;-81
2023/09/25 05:28:15;;;;;;;10.18;9.27;;;;;;;18.67;100.00;95040.22;5010625;28;20029;-81
2023/09/25 05:30:40;;;;;;;8.50;7.97;;;;;;;19.08;100.00;95027.22;5011113;28;20037;-80
2023/09/25 05:33:06;;;;;;;8.98;8.30;;;;;;;19.42;100.00;95031.06;5010800;28;20040;-81
2023/09/25 05:35:31;;;;;;;9.63;8.68;;;;;;;19.76;100.00;95032.19;5011182;28;20400;-81
2023/09/25 05:37:57;;;;;;;8.85;8.15;;;;;;;19.84;100.00;95024.00;5010424;28;20105;-81
2023/09/25 05:40:22;;;;;;;8.82;8.00;;;;;;;20.16;100.00;95017.41;5010914;28;20052;-80
2023/09/25 05:42:49;;;;;;;9.48;8.52;;;;;;;20.08;100.00;95032.69;5010923;28;20168;-80
2023/09/25 05:45:16;;;;;;;8.30;7.72;;;;;;;20.50;100.00;95021.06;5010441;28;20034;-81
2023/09/25 05:47:41;;;;;;;8.57;7.97;;;;;;;20.79;100.00;95021.94;5009568;28;20029;-81
2023/09/25 05:50:07;;;;;;;10.45;8.45;;;;;;;20.90;100.00;95029.03;5010541;28;20109;-80
2023/09/25 05:52:36;;;;;;;9.65;8.95;;;;;;;20.28;100.00;95033.22;5011153;28;20392;-80
2023/09/25 05:55:04;;;;;;;9.40;8.70;;;;;;;20.59;100.00;95027.59;5010007;28;20093;-80
2023/09/25 05:57:30;;;;;;;11.75;10.55;;;;;;;20.60;100.00;95023.13;5009570;28;20089;-81
2023/09/25 05:59:56;;;;;;;11.02;9.88;;;;;;;20.33;100.00;95028.84;5009701;28;20034;-81
2023/09/25 06:02:22;;;;;;;11.27;10.10;;;;;;;20.68;100.00;95028.81;5010789;28;20439;-80
2023/09/25 06:04:47;;;;;;;10.68;9.77;;;;;;;21.24;100.00;95025.53;5010532;28;20088;-80
2023/09/25 06:07:13;;;;;;;11.25;10.10;;;;;;;21.18;100.00;95031.75;5009867;28;20025;-81
2023/09/25 06:09:39;;;;;;;10.60;9.90;;;;;;;22.00;100.00;95027.69;5010276;28;20022;-80
2023/09/25 06:12:04;;;;;;;10.30;8.88;;;;;;;22.92;100.00;95029.84;5009977;28;20044;-80
2023/09/25 06:14:30;;;;;;;9.23;8.52;;;;;;;24.75;87.73;95025.22;5010589;28;20026;-79
2023/09/25 06:16:57;;;;;;;8.40;7.68;;;;;;;23.73;90.80;95026.25;5009529;28;20382;-79
2023/09/25 06:19:24;;;;;;;9.73;8.93;;;;;;;24.27;90.18;95029.69;5010067;28;20515;-79
2023/09/25 06:21:50;;;;;;;10.32;9.52;;;;;;;24.79;81.67;95026.31;5009628;28;20399;-80
2023/09/25 06:24:15;;;;;;;10.80;9.93;;;;;;;25.29;81.83;95026.56;5009816;28;20038;-80
2023/09/25 06:26:44;;;;;;;10.57;9.77;;;;;;;24.20;84.05;95034.41;5008733;28;20042;-84
2023/09/25 06:29:11;;;;;;;10.10;9.30;;;;;;;25.18;80.69;95022.25;5008269;28;20033;-83
2023/09/25 06:31:36;;;;;;;9.38;8.60;;;;;;;25.77;78.19;95024.56;5010053;28;20075;-79
2023/09/25 06:34:03;;;;;;;10.10;8.77;;;;;;;23.44;88.42;95031.00;5009280;28;20037;-80
2023/09/25 06:36:28;;;;;;;8.80;8.15;;;;;;;25.00;81.83;95035.97;5009887;28;20032;-79
2023/09/25 06:38:54;;;;;;;8.30;7.65;;;;;;;25.08;79.94;95046.09;5009481;28;20022;-80
2023/09/25 06:41:20;;;;;;;7.05;6.50;;;;;;;24.40;82.60;95045.13;5010153;28;20034;-80
2023/09/25 06:43:46;;;;;;;6.70;6.10;;;;;;;24.43;81.74;95049.13;5009462;28;20494;-79
2023/09/25 06:46:11;;;;;;;7.32;6.72;;;;;;;24.03;87.17;95047.72;5009518;28;20033;-81
2023/09/25 06:48:37;;;;;;;6.05;5.55;;;;;;;23.51;85.02;95051.97;5009438;28;20029;-79
2023/09/25 06:51:02;;;;;;;5.22;4.70;;;;;;;24.53;80.91;95057.16;5009205;28;20095;-79
2023/09/25 06:53:28;;;;;;;10.00;4.85;;;;;;;22.54;87.58;95049.91;5010115;28;20340;-82
2023/09/25 06:55:53;;;;;;;6.60;4.75;;;;;;;23.24;86.63;95054.56;5009163;28;20029;-78
2023/09/25 06:58:18;;;;;;;5.35;4.53;;;;;;;23.43;86.85;95055.88;5009553;28;20022;-79
2023/09/25 07:00:45;;;;;;;5.53;4.85;;;;;;;24.74;79.47;95052.78;5009036;28;20053;-83
2023/09/25 07:03:11;;;;;;;8.13;5.43;;;;;;;24.10;80.43;95061.56;5009825;28;20048;-80
2023/09/25 07:05:36;;;;;;;7.85;5.40;;;;;;;24.02;82.48;95063.84;5008776;28;20484;-80
2023/09/25 07:08:03;;;;;;;7.18;4.50;;;;;;;23.96;81.09;95056.91;5008975;28;20030;-85
2023/09/25 07:10:30;;;;;;;5.82;4.90;;;;;;;24.57;80.31;95074.13;5009321;28;20377;-79
2023/09/25 07:12:55;;;;;;;8.18;4.63;;;;;;;24.19;81.22;95072.50;5009035;28;20411;-80
2023/09/25 07:15:21;;;;;;;6.45;4.70;;;;;;;24.16;82.43;95070.38;5009688;28;20419;-81
2023/09/25 07:17:47;;;;;;;5.30;4.80;;;;;;;25.07;76.05;95071.81;5008643;28;20046;-81
2023/09/25 07:20:12;;;;;;;4.50;4.10;;;;;;;25.32;73.83;95068.47;5008564;28;20038;-81
2023/09/25 07:22:38;;;;;;;4.10;3.70;;;;;;;25.78;72.51;95066.00;5008702;28;20026;-86
2023/09/25 07:25:04;;;;;;;4.32;3.92;;;;;;;26.00;72.13;95070.03;5008616;28;20052;-79
2023/09/25 07:27:30;;;;;;;3.70;3.33;;;;;;;26.41;69.70;95070.88;5009326;28;20416;-80
2023/09/25 07:29:56;;;;;;;4.28;3.88;;;;;;;24.43;78.00;95076.44;5008119;28;20061;-80
2023/09/25 07:32:22;;;;;;;4.40;3.58;;;;;;;25.11;75.83;95080.84;5009489;28;20122;-80
2023/09/25 07:34:48;;;;;;;4.75;4.22;;;;;;;26.18;70.35;95082.81;5007037;28;20160;-81
2023/09/25 07:37:13;;;;;;;5.00;4.45;;;;;;;23.94;80.17;95077.56;5008979;28;20590;-80
2023/09/25 07:39:40;;;;;;;9.38;4.10;;;;;;;22.96;85.92;95087.22;5007802;28;20075;-81
2023/09/25 07:42:09;;;;;;;4.57;3.53;;;;;;;24.01;80.03;95078.16;5008623;28;20033;-84
2023/09/25 07:44:35;;;;;;;4.82;4.22;;;;;;;22.99;85.11;95078.00;4990837;28;20505;-84
2023/09/25 07:47:06;;;;;;;4.07;3.45;;;;;;;23.50;83.17;95079.47;5007863;28;20034;-81
2023/09/25 07:49:32;;;;;;;6.13;4.00;;;;;;;23.65;82.53;95073.53;5008704;28;20038;-81
2023/09/25 07:52:00;;;;;;;6.28;3.90;;;;;;;22.95;87.42;95080.38;5006649;28;20028;-80
2023/09/25 07:54:26;;;;;;;9.60;4.35;;;;;;;23.38;84.68;95069.00;5008387;28;20026;-84
2023/09/25 07:56:51;;;;;;;7.80;4.38;;;;;;;22.85;85.56;95067.00;5008013;28;20032;-79
2023/09/25 07:59:17;;;;;;;4.82;3.80;;;;;;;23.39;84.46;95067.94;5008151;28;20479;-80
2023/09/25 08:01:42;;;;;;;5.55;4.28;;;;;;;23.38;83.40;95065.53;5007896;28;20034;-78
2023/09/25 08:04:08;;;;;;;4.40;3.90;;;;;;;24.34;81.67;95064.69;5007860;28;20029;-80
2023/09/25 08:06:33;;;;;;;4.05;3.65;;;;;;;23.27;84.36;95067.28;5008508;28;20029;-79
2023/09/25 08:08:59;;;;;;;6.05;4.30;;;;;;;23.14;85.84;95067.66;5007527;28;20220;-80
2023/09/25 08:11:25;;;;;;;4.95;3.78;;;;;;;23.41;82.18;95070.38;5008578;28;20536;-79
2023/09/25 08:13:53;;;;;;;4.40;4.00;;;;;;;23.27;84.07;95067.28;5007520;28;20407;-82
2023/09/25 08:16:19;;;;;;;5.38;4.00;;;;;;;23.41;83.39;95067.72;5008573;28;20033;-81
2023/09/25 08:18:45;;;;;;;9.40;4.10;;;;;;;23.37;83.48;95067.41;5007264;28;20408;-80
2023/09/25 08:21:10;;;;;;;4.50;3.65;;;;;;;23.63;82.07;95071.16;5007986;28;20105;-79
2023/09/25 08:23:36;;;;;;;5.75;3.80;;;;;;;22.68;86.45;95068.06;5008160;28;20121;-81
2023/09/25 08:26:05;;;;;;;5.05;4.32;;;;;;;22.50;88.28;95071.75;5006947;28;20054;-77
2023/09/25 08:28:31;;;;;;;4.53;3.95;;;;;;;22.49;89.04;95072.78;5007926;28;20499;-81
2023/09/25 08:30:56;;;;;;;8.38;4.20;;;;;;;23.17;86.49;95076.94;5006928;28;20076;-79
2023/09/25 08:33:23;;;;;;;5.43;3.70;;;;;;;22.91;84.65;95075.81;5008154;28;20048;-80
2023/09/25 08:35:50;;;;;;;6.38;3.85;;;;;;;23.00;83.72;95076.97;5007237;28;20026;-86
2023/09/25 08:38:16;;;;;;;8.35;3.92;;;;;;;23.54;82.29;95077.91;5007491;28;20502;-80
2023/09/25 08:40:49;;;;;;;5.85;3.80;;;;;;;23.28;82.89;95089.25;5007704;28;20026;-77
2023/09/25 08:43:15;;;;;;;10.45;4.32;;;;;;;23.93;79.41;95081.22;5007883;28;20041;-79
2023/09/25 08:45:42;;;;;;;6.15;3.67;;;;;;;23.56;81.11;95076.66;5007282;28;20030;-79
2023/09/25 08:48:10;;;;;;;5.00;3.80;;;;;;;23.69;80.21;95072.81;5005637;28;20049;-80
2023/09/25 08:50:37;;;;;;;5.10;3.70;;;;;;;23.13;83.78;95075.81;5008148;28;20407;-80
2023/09/25 08:53:02;;;;;;;4.22;3.47;;;;;;;23.53;81.55;95071.84;5007046;28;20122;-81
2023/09/25 08:55:28;;;;;;;10.30;3.60;;;;;;;22.94;84.01;95077.94;5007569;28;20462;-82
2023/09/25 08:57:53;;;;;;;6.80;4.07;;;;;;;22.96;84.46;95067.94;5007231;28;20510;-82
2023/09/25 09:00:19;;;;;;;6.50;3.90;;;;;;;23.71;82.72;95077.84;5007249;28;20033;-79
2023/09/25 09:02:45;;;;;;;7.38;4.00;;;;;;;23.77;82.49;95075.00;5007772;28;20113;-80
2023/09/25 09:05:11;;;;;;;4.82;3.80;;;;;;;23.76;82.41;95075.25;5006528;28;20499;-79
2023/09/25 09:07:38;;;;;;;5.80;3.88;;;;;;;23.18;82.96;95071.41;5007755;28;20037;-80
2023/09/25 09:10:04;;;;;;;5.28;4.10;;;;;;;22.79;85.16;95075.91;5005360;28;20022;-81
2023/09/25 09:12:29;;;;;;;4.45;4.05;;;;;;;23.02;85.40;95073.03;5006210;28;20424;-85
2023/09/25 09:14:55;;;;;;;7.07;4.32;;;;;;;23.01;84.58;95070.66;5006743;28;20026;-80
2023/09/25 09:17:20;;;;;;;7.47;4.03;;;;;;;23.27;84.11;95067.28;5007142;28;20041;-82
2023/09/25 09:19:46;;;;;;;6.05;3.88;;;;;;;23.71;81.27;95072.53;5005914;28;20026;-80
2023/09/25 09:22:13;;;;;;;5.40;4.25;;;;;;;23.93;80.48;95060.88;5006994;28;20074;-81
2023/09/25 09:24:43;;;;;;;4.18;3.38;;;;;;;23.82;80.86;95064.47;5007214;28;20484;-80
2023/09/25 09:27:09;;;;;;;6.22;4.25;;;;;;;23.63;81.20;95058.72;5006468;28;20026;-82
2023/09/25 09:29:42;;;;;;;5.88;4.10;;;;;;;23.73;82.05;95059.88;5007550;28;20036;-81
2023/09/25 09:32:08;;;;;;;5.47;4.10;;;;;;;23.44;82.29;95057.44;5006597;28;20033;-84
2023/09/25 09:34:34;;;;;;;4.35;3.83;;;;;;;23.10;83.12;95055.97;5007189;28;20232;-81
2023/09/25 09:37:00;;;;;;;5.93;4.10;;;;;;;23.54;81.74;95062.03;5007391;28;20080;-80
2023/09/25 09:39:25;;;;;;;7.03;4.55;;;;;;;23.98;79.30;95062.78;5006879;28;20044;-80
2023/09/25 09:41:55;;;;;;;4.97;3.63;;;;;;;23.77;80.32;95058.31;5007086;28;20030;-80
2023/09/25 09:44:21;;;;;;;6.38;4.22;;;;;;;23.63;80.12;95056.06;4988656;28;20037;-80
2023/09/25 09:46:50;;;;;;;5.22;3.92;;;;;;;23.49;80.08;95054.88;5007378;28;20378;-80
2023/09/25 09:49:20;;;;;;;6.22;3.83;;;;;;;23.22;82.13;95059.28;5006286;28;20470;-81
2023/09/25 09:51:48;;;;;;;7.03;4.50;;;;;;;23.36;81.75;95060.50;5007280;28;20030;-82
2023/09/25 09:54:14;;;;;;;9.93;3.70;;;;;;;23.31;81.00;95057.03;5006464;28;20025;-80
2023/09/25 09:56:40;;;;;;;7.65;4.35;;;;;;;23.10;81.27;95066.53;5005946;28;20037;-81
2023/09/25 09:59:06;;;;;;;5.82;4.50;;;;;;;23.51;81.51;95054.63;5010547;28;20026;-81
2023/09/25 10:01:33;;;;;;;4.55;4.00;;;;;;;23.27;81.83;95062.00;5009823;28;20116;-81
2023/09/25 10:04:00;;;;;;;6.28;3.92;;;;;;;23.51;81.24;95058.06;5009540;28;20034;-80
2023/09/25 10:06:28;;;;;;;3.72;3.38;;;;;;;23.75;80.15;95058.59;5008639;28;20320;-82
2023/09/25 10:09:08;;;;;;;6.33;4.13;;;;;;;23.66;78.55;95054.00;5010615;28;20408;-81
2023/09/25 10:11:34;;;;;;;7.30;4.13;;;;;;;23.72;77.59;95058.28;5010081;28;20049;-82
2023/09/25 10:14:03;;;;;;;5.97;4.00;;;;;;;23.53;78.41;95048.06;5010270;28;20132;-81
2023/09/25 10:16:30;;;;;;;5.03;3.88;;;;;;;24.11;77.39;95043.84;5010661;28;20866;-85
2023/09/25 10:18:55;;;;;;;11.52;4.00;;;;;;;24.26;76.44;95040.53;5008029;28;20036;-81
2023/09/25 10:21:21;;;;;;;9.32;4.30;;;;;;;23.81;78.18;95035.59;5010480;28;20029;-81
2023/09/25 10:23:48;;;;;;;4.43;4.03;;;;;;;23.92;77.24;95038.09;5009773;28;20026;-81
2023/09/25 10:26:25;;;;;;;7.82;4.30;;;;;;;24.23;76.74;95035.75;5009666;28;20517;-81
2023/09/25 10:29:12;;;;;;;5.38;4.22;;;;;;;23.86;77.86;95036.44;5009911;28;20022;-84
2023/09/25 10:31:38;;;;;;;4.32;3.67;;;;;;;24.20;77.79;95031.75;5008364;28;20411;-83
2023/09/25 10:34:07;;;;;;;4.13;3.72;;;;;;;24.10;76.63;95026.34;5009961;28;20052;-82
2023/09/25 10:36:39;;;;;;;5.97;3.83;;;;;;;24.09;76.53;95028.19;5009259;28;20026;-80
2023/09/25 10:39:13;;;;;;;6.05;4.00;;;;;;;23.73;76.33;95030.78;5010230;28;20165;-83
2023/09/25 10:41:39;;;;;;;4.30;3.90;;;;;;;24.02;75.45;95029.44;5009579;28;20077;-82
2023/09/25 10:44:05;;;;;;;4.03;3.63;;;;;;;23.77;75.91;95023.91;4991691;28;20053;-82
2023/09/25 10:46:30;;;;;;;4.97;3.90;;;;;;;24.00;75.58;95034.19;5009873;28;20022;-82
2023/09/25 10:48:57;;;;;;;5.15;4.13;;;;;;;23.80;77.38;95023.41;5009305;28;20018;-82
2023/09/25 10:51:22;;;;;;;4.65;3.67;;;;;;;23.98;76.07;95017.78;5009953;28;20033;-82
2023/09/25 10:53:48;;;;;;;5.57;4.15;;;;;;;24.40;74.90;95023.16;5008766;28;20112;-81
2023/09/25 10:56:14;;;;;;;4.70;4.30;;;;;;;24.11;74.75;95030.59;5009670;28;20053;-82
2023/09/25 10:58:40;;;;;;;3.88;3.45;;;;;;;24.18;74.43;95019.81;5008994;28;20029;-82
2023/09/25 11:01:05;;;;;;;4.80;3.80;;;;;;;24.14;74.88;95020.31;5009212;28;20030;-84
2023/09/25 11:03:34;;;;;;;4.20;3.80;;;;;;;24.36;73.39;95020.22;5008974;28;20037;-83
2023/09/25 11:05:59;;;;;;;8.07;3.95;;;;;;;24.47;73.64;95013.91;5008906;28;20101;-81
2023/09/25 11:08:26;;;;;;;7.88;3.95;;;;;;;24.61;72.54;95027.53;5008374;28;20120;-81
2023/09/25 11:10:52;;;;;;;5.75;4.10;;;;;;;24.39;74.29;95019.72;5008684;28;20032;-82
2023/09/25 11:13:17;;;;;;;4.30;3.65;;;;;;;24.86;72.75;95021.59;5009269;28;20018;-81
2023/09/25 11:15:44;;;;;;;4.07;3.78;;;;;;;24.76;71.72;95013.56;5008423;28;20025;-80
2023/09/25 11:18:10;;;;;;;7.25;4.30;;;;;;;25.08;72.17;95006.31;5008334;28;20391;-82
2023/09/25 11:20:37;;;;;;;4.90;3.80;;;;;;;24.72;73.49;95015.13;5007030;28;20033;-81
2023/09/25 11:23:04;;;;;;;7.85;4.05;;;;;;;24.54;74.31;95019.81;5008871;28;20069;-81